Time;durP1;ratioP1;P1;durP2;ratioP2;P2;SDS_P1;SDS_P2;PMS_P1;PMS_P2;Temp;Humidity;BMP_temperature;BMP_pressure;BME280_temperature;BME280_humidity;BME280_pressure;Samples;Min_cycle;Max_cycle;Signal;HPM_P1;HPM_P2
2021/05/21 00:01:58;;;;;;;18.15;15.20;;;;;;;15.61;100.00;100765.25;4907271;29;20039;-75
2021/05/21 00:04:44;;;;;;;17.73;13.57;;;;;;;15.38;100.00;100775.81;4919369;29;20111;-75
2021/05/21 00:07:30;;;;;;;15.50;13.82;;;;;;;15.15;100.00;100778.38;4918666;29;20048;-74
2021/05/21 00:10:16;;;;;;;17.80;15.52;;;;;;;15.11;100.00;100790.78;4919389;29;20039;-75
2021/05/21 00:13:02;;;;;;;19.48;16.13;;;;;;;14.94;100.00;100793.16;4919921;29;20043;-75
2021/05/21 00:15:48;;;;;;;18.90;15.77;;;;;;;15.22;100.00;100793.91;4907091;29;20102;-75
2021/05/21 00:18:34;;;;;;;19.75;16.23;;;;;;;15.38;100.00;100794.28;4919435;29;20036;-75
2021/05/21 00:21:20;;;;;;;17.00;15.20;;;;;;;15.40;100.00;100790.69;4918625;29;20035;-75
2021/05/21 00:24:06;;;;;;;23.58;16.10;;;;;;;15.22;100.00;100786.00;4906679;29;20028;-75
2021/05/21 00:26:52;;;;;;;19.85;15.43;;;;;;;15.24;100.00;100785.94;4919625;29;20040;-75
2021/05/21 00:29:38;;;;;;;23.75;18.45;;;;;;;15.27;100.00;100783.22;4905822;29;20028;-75
2021/05/21 00:32:23;;;;;;;18.20;15.68;;;;;;;15.27;100.00;100781.41;4906462;29;20468;-75
2021/05/21 00:35:10;;;;;;;19.17;16.92;;;;;;;15.23;100.00;100778.97;4906122;29;20091;-75
2021/05/21 00:37:56;;;;;;;21.52;17.42;;;;;;;14.93;100.00;100787.91;4919518;29;20410;-75
2021/05/21 00:40:41;;;;;;;17.20;15.32;;;;;;;14.82;100.00;100787.44;4906602;29;20180;-75
2021/05/21 00:43:27;;;;;;;17.60;14.77;;;;;;;14.61;100.00;100792.50;4918348;29;20034;-75
2021/05/21 00:46:13;;;;;;;15.13;13.52;;;;;;;15.03;100.00;100797.25;4906587;29;20050;-75
2021/05/21 00:48:59;;;;;;;15.93;12.88;;;;;;;14.76;100.00;100799.06;4919345;29;20032;-75
2021/05/21 00:51:47;;;;;;;16.23;14.38;;;;;;;14.96;100.00;100801.88;4893465;29;20122;-76
2021/05/21 00:54:34;;;;;;;14.15;12.40;;;;;;;14.66;100.00;100797.63;4918905;29;20469;-75
2021/05/21 00:57:20;;;;;;;15.18;13.13;;;;;;;14.57;100.00;100804.06;4918727;29;20273;-75
2021/05/21 01:00:07;;;;;;;14.65;12.40;;;;;;;15.00;100.00;100807.91;4919044;29;20043;-74
2021/05/21 01:02:52;;;;;;;17.05;13.90;;;;;;;14.76;100.00;100806.97;4918823;29;20044;-75
2021/05/21 01:05:38;;;;;;;15.55;12.73;;;;;;;14.85;100.00;100809.28;4918748;29;20036;-75
2021/05/21 01:08:24;;;;;;;15.15;12.68;;;;;;;14.70;100.00;100815.06;4918294;29;20128;-75
2021/05/21 01:11:10;;;;;;;15.85;13.00;;;;;;;15.17;100.00;100816.09;4918240;29;20365;-75
2021/05/21 01:13:56;;;;;;;16.02;12.90;;;;;;;15.20;100.00;100811.59;4918312;29;20039;-75
2021/05/21 01:16:41;;;;;;;15.55;13.23;;;;;;;15.46;100.00;100810.69;4904765;29;20032;-75
2021/05/21 01:19:27;;;;;;;16.17;14.48;;;;;;;14.95;100.00;100815.97;4918564;29;20486;-75
2021/05/21 01:22:14;;;;;;;20.15;14.70;;;;;;;15.12;100.00;100821.56;4918535;29;20028;-74
2021/05/21 01:25:00;;;;;;;17.52;14.68;;;;;;;14.87;100.00;100817.16;4905618;29;20096;-75
2021/05/21 01:27:46;;;;;;;18.20;15.48;;;;;;;14.98;100.00;100820.31;4906082;29;20027;-75
2021/05/21 01:30:32;;;;;;;17.75;14.77;;;;;;;15.20;100.00;100821.28;4918829;29;20051;-75
2021/05/21 01:33:19;;;;;;;19.73;14.63;;;;;;;15.20;100.00;100821.28;4918127;29;20024;-75
2021/05/21 01:36:04;;;;;;;17.38;14.55;;;;;;;14.98;100.00;100828.22;4918565;29;20074;-75
2021/05/21 01:38:58;;;;;;;19.55;15.32;;;;;;;15.01;100.00;100841.28;4918198;29;20032;-75
2021/05/21 01:41:44;;;;;;;17.13;14.65;;;;;;;15.15;100.00;100839.06;4918325;29;20111;-75
2021/05/21 01:44:30;;;;;;;17.40;15.38;;;;;;;15.21;100.00;100833.56;4905896;29;20131;-75
2021/05/21 01:47:15;;;;;;;20.00;15.73;;;;;;;15.13;100.00;100832.97;4917827;29;20035;-75
2021/05/21 01:50:03;;;;;;;18.45;15.50;;;;;;;15.48;100.00;100841.44;4918012;29;20453;-75
2021/05/21 01:52:48;;;;;;;17.52;14.90;;;;;;;15.25;100.00;100833.41;4904926;29;20195;-75
2021/05/21 01:55:34;;;;;;;19.25;16.63;;;;;;;15.02;100.00;100835.13;4918187;29;20357;-75
2021/05/21 01:58:20;;;;;;;20.33;16.55;;;;;;;15.23;100.00;100829.94;4918008;29;20116;-75
2021/05/21 02:01:06;;;;;;;19.67;16.33;;;;;;;15.25;100.00;100827.25;4917366;29;20055;-75
2021/05/21 02:03:52;;;;;;;20.17;17.30;;;;;;;15.38;100.00;100828.63;4917644;29;20039;-75
2021/05/21 02:06:38;;;;;;;19.65;16.70;;;;;;;15.52;100.00;100827.22;4905989;29;20028;-75
2021/05/21 02:09:25;;;;;;;20.70;17.20;;;;;;;15.79;100.00;100822.69;4918141;29;20044;-75
2021/05/21 02:12:11;;;;;;;18.83;15.98;;;;;;;15.48;100.00;100830.00;4917815;29;20024;-75
2021/05/21 02:14:58;;;;;;;19.48;16.10;;;;;;;15.70;100.00;100834.44;4917248;29;20390;-75
2021/05/21 02:17:44;;;;;;;22.83;16.23;;;;;;;15.42;100.00;100838.13;4905858;29;20032;-75
2021/05/21 02:20:29;;;;;;;23.25;16.25;;;;;;;15.80;100.00;100829.69;4918139;29;20032;-74
2021/05/21 02:23:15;;;;;;;23.40;17.23;;;;;;;15.42;100.00;100832.84;4905934;29;20038;-75
2021/05/21 02:26:01;;;;;;;22.35;17.75;;;;;;;15.62;100.00;100843.56;4906882;29;20097;-75
2021/05/21 02:28:47;;;;;;;24.88;17.15;;;;;;;15.93;100.00;100838.88;4917615;29;20031;-75
2021/05/21 02:31:33;;;;;;;23.55;17.95;;;;;;;15.84;100.00;100839.22;4917710;29;20039;-75
2021/05/21 02:34:18;;;;;;;22.70;17.15;;;;;;;15.92;100.00;100831.88;4918829;29;20548;-75
2021/05/21 02:37:04;;;;;;;23.73;17.17;;;;;;;15.67;100.00;100839.84;4918676;29;20469;-75
2021/05/21 02:39:50;;;;;;;24.95;18.80;;;;;;;15.44;100.00;100844.22;4917695;29;20032;-76
2021/05/21 02:42:37;;;;;;;24.13;19.02;;;;;;;15.25;100.00;100840.47;4917563;29;20454;-76
2021/05/21 02:45:23;;;;;;;27.60;19.92;;;;;;;15.41;100.00;100847.84;4917782;29;20032;-76
2021/05/21 02:48:08;;;;;;;27.48;19.48;;;;;;;15.19;100.00;100853.88;4905492;29;20086;-75
2021/05/21 02:50:54;;;;;;;26.13;19.92;;;;;;;15.06;100.00;100866.63;4917768;29;20088;-76
2021/05/21 02:53:40;;;;;;;32.97;23.13;;;;;;;15.12;100.00;100865.56;4906786;29;20040;-73
2021/05/21 02:56:26;;;;;;;29.23;22.02;;;;;;;15.08;100.00;100871.84;4920315;29;20463;-75
2021/05/21 02:59:11;;;;;;;30.00;22.23;;;;;;;14.84;100.00;100865.59;4920807;29;20042;-75
2021/05/21 03:01:57;;;;;;;29.27;21.88;;;;;;;15.45;100.00;100870.59;4920886;29;20522;-75
2021/05/21 03:04:43;;;;;;;29.33;22.17;;;;;;;15.32;100.00;100869.25;4908231;29;20071;-75
2021/05/21 03:07:29;;;;;;;28.95;21.58;;;;;;;15.50;100.00;100867.75;4920468;29;20134;-75
2021/05/21 03:10:14;;;;;;;28.52;21.20;;;;;;;15.65;100.00;100867.22;4920415;29;20032;-75
2021/05/21 03:13:00;;;;;;;26.92;20.85;;;;;;;15.86;100.00;100872.59;4920194;29;20036;-75
2021/05/21 03:15:47;;;;;;;27.42;20.83;;;;;;;15.87;100.00;100869.03;4921068;29;20513;-76
2021/05/21 03:18:33;;;;;;;27.75;20.48;;;;;;;15.78;100.00;100873.78;4920701;29;20050;-75
2021/05/21 03:21:19;;;;;;;24.52;19.27;;;;;;;15.43;100.00;100877.69;4908110;29;20059;-74
2021/05/21 03:24:05;;;;;;;25.23;18.83;;;;;;;15.92;100.00;100877.69;4919859;29;20032;-75
2021/05/21 03:26:51;;;;;;;28.65;21.17;;;;;;;15.65;100.00;100886.59;4907982;29;20032;-76
2021/05/21 03:29:37;;;;;;;24.08;19.23;;;;;;;15.61;100.00;100892.03;4920405;29;20024;-75
2021/05/21 03:32:23;;;;;;;27.20;18.95;;;;;;;15.81;100.00;100884.25;4920474;29;20028;-74
2021/05/21 03:35:10;;;;;;;27.08;19.27;;;;;;;15.97;100.00;100890.72;4919981;29;20066;-75
2021/05/21 03:37:56;;;;;;;23.30;18.88;;;;;;;16.05;100.00;100894.81;4907859;29;20068;-74
2021/05/21 03:40:42;;;;;;;22.35;18.52;;;;;;;15.83;100.00;100900.94;4919680;29;20115;-75
2021/05/21 03:43:28;;;;;;;22.85;16.73;;;;;;;15.64;100.00;100907.78;4920419;29;20392;-74
2021/05/21 03:46:14;;;;;;;24.73;18.05;;;;;;;16.18;100.00;100909.28;4919828;29;20071;-75
2021/05/21 03:49:02;;;;;;;22.85;18.92;;;;;;;16.26;100.00;100906.34;4907549;29;20040;-75
2021/05/21 03:51:48;;;;;;;22.65;18.77;;;;;;;16.27;100.00;100914.22;4919624;29;20024;-75
2021/05/21 03:54:34;;;;;;;24.23;17.58;;;;;;;16.33;100.00;100906.06;4920720;29;20036;-75
2021/05/21 03:57:21;;;;;;;22.25;18.15;;;;;;;16.34;100.00;100907.78;4919181;29;20032;-75
2021/05/21 04:00:09;;;;;;;24.85;18.95;;;;;;;16.29;100.00;100906.22;4919964;29;20043;-74
2021/05/21 04:02:54;;;;;;;20.35;17.05;;;;;;;16.31;100.00;100902.59;4919343;29;20474;-75
2021/05/21 04:05:40;;;;;;;21.50;16.95;;;;;;;16.46;100.00;100901.19;4907550;29;20084;-75
2021/05/21 04:08:28;;;;;;;17.85;15.95;;;;;;;16.41;100.00;100892.59;4919463;29;20135;-75
2021/05/21 04:11:14;;;;;;;18.08;14.77;;;;;;;16.68;100.00;100895.00;4919252;29;20464;-75
2021/05/21 04:14:00;;;;;;;19.05;15.43;;;;;;;16.52;100.00;100899.16;4919601;29;20085;-75
2021/05/21 04:16:46;;;;;;;16.65;13.80;;;;;;;16.49;100.00;100914.31;4906836;29;20040;-76
2021/05/21 04:19:32;;;;;;;14.68;12.43;;;;;;;16.61;100.00;100905.91;4919550;29;20070;-75
2021/05/21 04:22:18;;;;;;;14.10;11.90;;;;;;;16.48;100.00;100900.22;4918765;29;20051;-75
2021/05/21 04:25:04;;;;;;;13.05;10.88;;;;;;;16.46;100.00;100914.41;4919447;29;20095;-76
2021/05/21 04:27:50;;;;;;;13.63;11.05;;;;;;;16.73;100.00;100906.28;4906592;29;20062;-76
2021/05/21 04:30:36;;;;;;;14.25;12.23;;;;;;;16.44;100.00;100914.47;4918475;29;20114;-75
2021/05/21 04:33:21;;;;;;;14.30;11.88;;;;;;;16.20;100.00;100922.44;4906569;29;20047;-75
2021/05/21 04:36:07;;;;;;;17.13;13.27;;;;;;;16.41;100.00;100919.91;4918579;29;20035;-74
2021/05/21 04:38:53;;;;;;;15.98;12.60;;;;;;;16.71;100.00;100917.84;4918836;29;20092;-75
2021/05/21 04:41:39;;;;;;;14.35;11.63;;;;;;;16.61;100.00;100921.78;4918995;29;20055;-75
2021/05/21 04:44:24;;;;;;;14.90;12.32;;;;;;;16.74;100.00;100923.88;4918560;29;20039;-75
2021/05/21 04:47:10;;;;;;;12.65;10.38;;;;;;;16.42;100.00;100942.78;4917902;29;20032;-75
2021/05/21 04:49:56;;;;;;;16.17;10.48;;;;;;;16.84;100.00;100937.63;4918591;29;20051;-75
2021/05/21 04:52:42;;;;;;;12.25;10.10;;;;;;;16.44;100.00;100946.22;4917879;29;20024;-75
2021/05/21 04:55:27;;;;;;;16.10;12.68;;;;;;;16.56;100.00;100958.13;4906055;29;20409;-77
2021/05/21 04:58:13;;;;;;;17.30;11.80;;;;;;;16.69;100.00;100973.47;4906403;29;20024;-76
2021/05/21 05:00:59;;;;;;;14.50;11.70;;;;;;;16.60;100.00;100979.09;4918951;29;20464;-75
2021/05/21 05:03:45;;;;;;;15.43;12.20;;;;;;;16.43;100.00;100978.88;4905836;29;20035;-77
2021/05/21 05:06:31;;;;;;;16.58;11.32;;;;;;;16.70;100.00;100991.06;4918939;29;20060;-74
2021/05/21 05:09:17;;;;;;;13.98;11.15;;;;;;;16.64;100.00;100996.59;4905411;29;20048;-75
2021/05/21 05:12:03;;;;;;;16.60;11.43;;;;;;;17.01;100.00;100998.69;4918280;29;20123;-75
2021/05/21 05:14:49;;;;;;;11.02;8.50;;;;;;;16.58;100.00;101007.41;4918277;29;20072;-75
2021/05/21 05:17:35;;;;;;;14.43;9.60;;;;;;;17.12;100.00;101004.44;4904925;29;20028;-75
2021/05/21 05:20:22;;;;;;;11.85;8.77;;;;;;;17.30;100.00;101006.34;4906243;29;20374;-76
2021/05/21 05:23:10;;;;;;;8.88;7.35;;;;;;;16.88;100.00;101013.34;4919473;29;20060;-76
2021/05/21 05:25:57;;;;;;;9.85;7.60;;;;;;;17.22;100.00;101009.31;4921739;29;20028;-77
2021/05/21 05:28:47;;;;;;;11.50;8.27;;;;;;;17.15;100.00;101004.28;4922615;29;20060;-74
2021/05/21 05:31:33;;;;;;;7.50;6.50;;;;;;;16.88;100.00;101005.38;4919377;29;20373;-76
2021/05/21 05:34:18;;;;;;;9.20;5.85;;;;;;;16.51;100.00;100992.69;4904470;29;20032;-77
2021/05/21 05:37:04;;;;;;;7.07;6.35;;;;;;;17.14;100.00;100992.84;4918226;29;20024;-75
2021/05/21 05:39:50;;;;;;;16.45;6.80;;;;;;;17.38;100.00;100996.28;4904775;29;20055;-76
2021/05/21 05:42:36;;;;;;;9.55;5.70;;;;;;;17.24;100.00;101001.28;4917810;29;20438;-75
2021/05/21 05:45:21;;;;;;;8.52;5.75;;;;;;;16.96;100.00;101003.31;4917575;29;20032;-74
2021/05/21 05:48:07;;;;;;;7.13;5.55;;;;;;;16.31;100.00;101008.38;4917540;29;20036;-75
2021/05/21 05:50:53;;;;;;;6.97;5.72;;;;;;;17.18;100.00;101009.47;4904880;29;20028;-75
2021/05/21 05:53:41;;;;;;;7.88;5.38;;;;;;;16.79;100.00;101016.31;4917817;29;20459;-75
2021/05/21 05:56:26;;;;;;;9.13;6.13;;;;;;;17.32;100.00;101005.34;4917872;29;20060;-75
2021/05/21 05:59:12;;;;;;;5.93;5.32;;;;;;;17.28;100.00;101013.50;4917550;29;20039;-76
2021/05/21 06:01:58;;;;;;;7.20;5.60;;;;;;;17.92;100.00;101018.72;4905225;29;20043;-75
2021/05/21 06:04:44;;;;;;;7.95;6.60;;;;;;;17.53;100.00;101012.44;4904780;29;20403;-76
2021/05/21 06:07:30;;;;;;;7.20;6.15;;;;;;;17.51;100.00;101016.97;4917433;29;20137;-76
2021/05/21 06:10:15;;;;;;;6.22;5.22;;;;;;;17.54;100.00;101013.31;4917368;29;20119;-75
2021/05/21 06:13:07;;;;;;;7.38;5.53;;;;;;;17.43;100.00;101012.88;4917975;29;20020;-74
2021/05/21 06:15:53;;;;;;;8.80;5.40;;;;;;;16.94;100.00;101024.53;4917279;29;20426;-76
2021/05/21 06:18:40;;;;;;;7.13;5.15;;;;;;;17.35;100.00;101012.28;4904960;29;20362;-75
2021/05/21 06:21:26;;;;;;;7.78;5.30;;;;;;;16.93;100.00;101027.25;4904425;29;20111;-74
2021/05/21 06:24:14;;;;;;;6.82;5.30;;;;;;;17.03;100.00;101025.94;4904582;29;20031;-75
2021/05/21 06:27:16;;;;;;;7.38;5.50;;;;;;;16.87;100.00;101032.75;4917224;29;20032;-76
2021/05/21 06:30:06;;;;;;;6.22;5.07;;;;;;;17.18;100.00;101031.53;4921564;29;20028;-75
2021/05/21 06:32:51;;;;;;;8.27;5.10;;;;;;;17.93;100.00;101023.09;4920907;29;20047;-76
2021/05/21 06:35:37;;;;;;;6.47;5.18;;;;;;;17.84;100.00;101028.81;4908456;29;20095;-75
2021/05/21 06:38:23;;;;;;;7.25;5.07;;;;;;;18.16;100.00;101030.06;4908301;29;20036;-76
2021/05/21 06:41:09;;;;;;;8.93;7.57;;;;;;;18.05;100.00;101029.69;4920813;29;20032;-76
2021/05/21 06:43:55;;;;;;;5.30;4.55;;;;;;;17.90;100.00;101033.84;4907560;29;20032;-77
2021/05/21 06:46:40;;;;;;;6.00;4.18;;;;;;;18.15;100.00;101039.81;4920965;29;20347;-76
2021/05/21 06:49:26;;;;;;;5.53;4.80;;;;;;;17.93;100.00;101039.00;4908276;29;20043;-77
2021/05/21 06:52:12;;;;;;;6.97;4.20;;;;;;;17.79;100.00;101037.88;4907792;29;20118;-76
2021/05/21 06:54:58;;;;;;;4.10;3.58;;;;;;;17.89;100.00;101042.72;4908433;29;20031;-76
2021/05/21 06:57:44;;;;;;;5.13;3.60;;;;;;;17.96;100.00;101045.97;4907773;29;20347;-76
2021/05/21 07:00:29;;;;;;;4.57;3.40;;;;;;;18.20;100.00;101051.09;4908170;29;20068;-76
2021/05/21 07:03:16;;;;;;;3.35;3.03;;;;;;;18.78;100.00;101052.06;4920875;29;20521;-75
2021/05/21 07:06:02;;;;;;;4.30;3.08;;;;;;;18.86;100.00;101053.41;4921895;29;20039;-76
2021/05/21 07:08:49;;;;;;;3.92;3.28;;;;;;;19.40;100.00;101057.97;4920286;29;20047;-74
2021/05/21 07:11:36;;;;;;;4.63;3.95;;;;;;;19.49;100.00;101049.53;4922116;29;20024;-75
2021/05/21 07:14:25;;;;;;;4.00;2.80;;;;;;;19.86;100.00;101046.81;4921729;29;20032;-75
2021/05/21 07:17:11;;;;;;;5.50;2.83;;;;;;;19.31;100.00;101050.44;4920309;29;20039;-75
2021/05/21 07:19:57;;;;;;;3.35;2.58;;;;;;;19.43;100.00;101052.50;4920963;29;20024;-78
2021/05/21 07:22:43;;;;;;;3.78;2.63;;;;;;;19.32;100.00;101049.50;4920393;29;20040;-77
2021/05/21 07:25:29;;;;;;;2.40;2.20;;;;;;;19.49;100.00;101044.22;4920998;29;20359;-78
2021/05/21 07:28:15;;;;;;;4.05;2.50;;;;;;;19.80;100.00;101047.09;4920906;29;20465;-78
2021/05/21 07:31:01;;;;;;;5.13;2.40;;;;;;;19.78;100.00;101046.34;4922402;29;20028;-76
2021/05/21 07:33:50;;;;;;;3.35;2.40;;;;;;;19.45;100.00;101053.28;4908543;29;20473;-73
2021/05/21 07:36:35;;;;;;;2.80;2.17;;;;;;;19.71;100.00;101052.88;4909668;29;20028;-74
2021/05/21 07:39:21;;;;;;;7.30;2.40;;;;;;;19.49;100.00;101059.31;4908402;29;20377;-76
2021/05/21 07:42:08;;;;;;;2.53;2.30;;;;;;;19.82;100.00;101061.19;4921366;29;20031;-76
2021/05/21 07:44:53;;;;;;;4.28;2.30;;;;;;;19.95;100.00;101062.28;4908072;29;20032;-73
2021/05/21 07:47:39;;;;;;;3.97;2.00;;;;;;;19.56;100.00;101066.91;4908693;29;20032;-74
2021/05/21 07:50:31;;;;;;;2.92;1.90;;;;;;;20.00;100.00;101068.25;4920916;29;20347;-74
2021/05/21 07:53:18;;;;;;;2.20;1.60;;;;;;;19.68;100.00;101068.13;4920937;29;20124;-73
2021/05/21 07:56:14;;;;;;;2.55;1.80;;;;;;;20.38;100.00;101077.84;4908076;29;20028;-73
2021/05/21 07:59:03;;;;;;;2.58;1.60;;;;;;;20.23;100.00;101075.06;4906695;29;20021;-73
2021/05/21 08:01:48;;;;;;;2.50;2.10;;;;;;;20.54;100.00;101069.91;4906780;29;20032;-78
2021/05/21 08:04:34;;;;;;;3.65;2.00;;;;;;;21.16;100.00;101062.06;4919707;29;20039;-76
2021/05/21 08:07:20;;;;;;;4.07;1.83;;;;;;;20.60;100.00;101065.09;4906769;29;20044;-78
2021/05/21 08:10:07;;;;;;;2.25;1.73;;;;;;;20.64;100.00;101077.31;4919482;29;20430;-78
2021/05/21 08:12:53;;;;;;;2.70;1.85;;;;;;;20.66;100.00;101077.25;4905712;29;20459;-77
2021/05/21 08:15:39;;;;;;;2.53;1.60;;;;;;;20.72;100.00;101077.75;4919199;29;20042;-78
2021/05/21 08:18:25;;;;;;;2.17;1.70;;;;;;;21.51;100.00;101074.28;4906480;29;20094;-78
2021/05/21 08:21:11;;;;;;;3.78;2.22;;;;;;;21.35;100.00;101076.97;4906270;29;20046;-78
2021/05/21 08:23:56;;;;;;;3.70;1.98;;;;;;;21.10;100.00;101079.22;4919967;29;20028;-77
2021/05/21 08:26:42;;;;;;;1.52;1.42;;;;;;;20.92;100.00;101084.72;4918944;29;20040;-77
2021/05/21 08:29:28;;;;;;;2.47;1.90;;;;;;;21.54;100.00;101074.13;4919156;29;20186;-77
2021/05/21 08:32:17;;;;;;;1.95;1.50;;;;;;;21.55;100.00;101066.03;4906657;29;20048;-77
2021/05/21 08:35:04;;;;;;;2.17;1.20;;;;;;;21.44;100.00;101086.22;4919043;29;20047;-72
2021/05/21 08:37:51;;;;;;;5.95;4.18;;;;;;;21.67;100.00;101084.00;4919474;29;20420;-74
2021/05/21 08:40:38;;;;;;;2.70;1.20;;;;;;;21.79;100.00;101087.78;4905850;29;20028;-73
2021/05/21 08:43:25;;;;;;;3.25;1.58;;;;;;;21.94;100.00;101090.41;4905999;29;20032;-72
2021/05/21 08:46:11;;;;;;;2.13;1.25;;;;;;;22.85;100.00;101089.31;4905759;29;20338;-73
2021/05/21 08:48:58;;;;;;;4.10;1.20;;;;;;;21.92;100.00;101087.00;4905902;29;20194;-72
2021/05/21 08:51:47;;;;;;;5.75;2.00;;;;;;;22.21;100.00;101090.59;4917127;29;20060;-76
2021/05/21 08:54:35;;;;;;;6.40;1.50;;;;;;;21.32;100.00;101089.56;4919112;29;20039;-75
2021/05/21 08:57:20;;;;;;;2.90;0.90;;;;;;;21.13;100.00;101094.22;4918127;29;20075;-75
2021/05/21 09:00:07;;;;;;;3.03;1.70;;;;;;;20.95;100.00;101096.06;4906204;29;20036;-75
2021/05/21 09:02:53;;;;;;;4.65;1.75;;;;;;;20.25;100.00;101092.69;4905386;29;20381;-75
2021/05/21 09:05:39;;;;;;;1.63;1.30;;;;;;;20.47;100.00;101095.97;4919023;29;20028;-75
2021/05/21 09:08:40;;;;;;;1.65;1.40;;;;;;;20.40;100.00;101107.88;4917662;29;20052;-75
2021/05/21 09:11:27;;;;;;;3.20;1.42;;;;;;;19.85;100.00;101110.72;4918206;29;20031;-76
2021/05/21 09:14:18;;;;;;;2.83;1.70;;;;;;;20.07;100.00;101108.69;4917917;29;20051;-76
2021/05/21 09:17:04;;;;;;;8.98;2.22;;;;;;;20.36;100.00;101108.97;4918020;29;20465;-75
2021/05/21 09:19:50;;;;;;;11.32;2.35;;;;;;;20.69;100.00;101117.03;4918565;29;20110;-75
2021/05/21 09:22:35;;;;;;;5.10;2.80;;;;;;;21.05;100.00;101102.63;4918099;29;20028;-75
2021/05/21 09:25:47;;;;;;;3.53;2.17;;;;;;;21.25;100.00;101099.72;4918459;29;20036;-75
2021/05/21 09:28:37;;;;;;;4.80;2.30;;;;;;;22.07;100.00;101103.91;4917909;29;20076;-75
2021/05/21 09:31:23;;;;;;;4.95;2.20;;;;;;;22.27;97.89;101098.28;4918955;29;20043;-73
2021/05/21 09:34:10;;;;;;;4.60;2.30;;;;;;;22.96;95.40;101108.22;4904712;29;20384;-73
2021/05/21 09:36:56;;;;;;;5.35;1.98;;;;;;;22.33;96.17;101105.91;4918177;29;20032;-73
2021/05/21 09:40:06;;;;;;;4.05;1.70;;;;;;;22.13;91.13;101107.09;4917556;29;20032;-73
2021/05/21 09:42:58;;;;;;;4.93;2.10;;;;;;;21.88;97.68;101103.25;4917695;29;20171;-73
2021/05/21 09:45:45;;;;;;;4.25;2.65;;;;;;;21.61;100.00;101116.34;4904609;29;20054;-74
2021/05/21 09:48:31;;;;;;;4.03;1.90;;;;;;;21.07;100.00;101113.19;4917820;29;20111;-73
2021/05/21 09:51:18;;;;;;;2.63;1.70;;;;;;;21.34;100.00;101114.38;4904683;29;20020;-75
2021/05/21 09:54:04;;;;;;;2.97;1.83;;;;;;;22.02;98.30;101104.19;4905017;29;20171;-75
2021/05/21 09:57:05;;;;;;;2.75;1.75;;;;;;;22.21;95.44;101102.16;4917548;29;20385;-76
2021/05/21 09:59:54;;;;;;;3.15;1.83;;;;;;;22.24;95.32;101106.44;4917769;29;20060;-76
2021/05/21 10:02:41;;;;;;;5.45;1.70;;;;;;;22.91;92.22;101096.09;4920214;29;20028;-76
2021/05/21 10:05:28;;;;;;;3.80;1.50;;;;;;;21.95;96.75;101100.13;4910704;29;20024;-76
2021/05/21 10:08:14;;;;;;;3.25;1.70;;;;;;;22.36;96.89;101100.38;4911056;29;20509;-75
2021/05/21 10:11:00;;;;;;;2.80;1.80;;;;;;;23.10;96.43;101100.19;4911008;29;20028;-76
2021/05/21 10:13:46;;;;;;;1.88;1.50;;;;;;;23.01;96.32;101103.44;4923632;29;20099;-76
2021/05/21 10:16:32;;;;;;;2.35;1.70;;;;;;;23.42;89.35;101100.84;4911166;29;20111;-75
2021/05/21 10:19:25;;;;;;;5.90;1.77;;;;;;;23.40;92.34;101105.44;4924549;29;20484;-77
2021/05/21 10:22:14;;;;;;;1.98;1.80;;;;;;;23.07;94.81;101110.22;4911068;29;20123;-75
2021/05/21 10:25:08;;;;;;;5.63;1.70;;;;;;;22.67;97.89;101111.81;4924637;29;20056;-75
2021/05/21 10:27:56;;;;;;;5.22;2.03;;;;;;;22.22;97.76;101117.22;4922924;29;20039;-75
2021/05/21 10:30:43;;;;;;;8.93;2.63;;;;;;;22.39;100.00;101117.06;4924031;29;20070;-74
2021/05/21 10:33:35;;;;;;;5.53;2.20;;;;;;;22.17;95.40;101116.63;4923317;29;20373;-75
2021/05/21 10:36:28;;;;;;;7.88;2.58;;;;;;;22.19;100.00;101121.88;4911017;29;20372;-75
2021/05/21 10:39:20;;;;;;;8.20;2.17;;;;;;;21.76;98.61;101119.97;4923389;29;20043;-75
2021/05/21 10:42:20;;;;;;;3.85;2.05;;;;;;;22.11;100.00;101118.81;4923222;29;20059;-76
2021/05/21 10:45:11;;;;;;;8.40;2.92;;;;;;;22.18;100.00;101123.69;4923872;29;20472;-76
2021/05/21 10:48:06;;;;;;;10.20;2.58;;;;;;;22.43;100.00;101121.28;4923567;29;20445;-75
2021/05/21 10:51:12;;;;;;;6.65;2.08;;;;;;;21.75;96.91;101127.13;4923359;29;20574;-76
2021/05/21 10:54:23;;;;;;;4.88;2.22;;;;;;;21.82;97.71;101122.31;4923620;29;20067;-77
2021/05/21 10:57:19;;;;;;;;;;;;;;;;;;;;;
2021/05/21 11:00:06;;;;;;;2.80;2.00;;;;;;;23.43;91.87;101122.16;4923147;29;20055;-76
2021/05/21 11:02:53;;;;;;;6.63;2.25;;;;;;;22.90;94.65;101129.97;4923244;29;20051;-75
2021/05/21 11:05:39;;;;;;;2.38;1.88;;;;;;;21.48;92.21;101125.97;4924145;29;20101;-76
2021/05/21 11:08:29;;;;;;;3.88;2.15;;;;;;;21.50;95.59;101129.41;4910380;29;20548;-77
2021/05/21 11:11:15;;;;;;;4.43;2.10;;;;;;;22.40;95.26;101120.59;4910529;29;20032;-75
2021/05/21 11:14:04;;;;;;;2.42;2.03;;;;;;;23.48;89.33;101123.66;4908607;29;20032;-77
2021/05/21 11:16:55;;;;;;;3.53;2.50;;;;;;;23.48;89.99;101123.66;4920055;29;20036;-76
2021/05/21 11:19:52;;;;;;;5.05;2.40;;;;;;;23.04;92.58;101124.66;4919931;29;20031;-75
2021/05/21 11:22:38;;;;;;;3.28;2.20;;;;;;;23.11;93.55;101127.78;4919375;29;20092;-76
2021/05/21 11:25:24;;;;;;;2.53;1.98;;;;;;;22.49;94.34;101128.97;4921292;29;20402;-75
2021/05/21 11:28:13;;;;;;;5.25;2.30;;;;;;;22.76;95.28;101137.13;4919810;29;20465;-76
2021/05/21 11:30:59;;;;;;;5.15;2.80;;;;;;;22.09;100.00;101142.03;4921186;29;20024;-76
2021/05/21 11:33:47;;;;;;;4.93;2.42;;;;;;;21.70;100.00;101145.19;4905986;29;20581;-75
2021/05/21 11:36:34;;;;;;;4.20;2.92;;;;;;;21.67;100.00;101145.34;4907763;29;20103;-76
2021/05/21 11:39:24;;;;;;;4.05;3.55;;;;;;;21.97;100.00;101156.09;4919872;29;20032;-76
2021/05/21 11:42:10;;;;;;;4.00;3.10;;;;;;;22.00;100.00;101147.91;4920018;29;20100;-76
2021/05/21 11:44:57;;;;;;;6.78;2.97;;;;;;;22.57;100.00;101148.06;4907039;29;20088;-75
2021/05/21 11:47:46;;;;;;;4.47;3.03;;;;;;;22.51;100.00;101152.91;4920057;29;20489;-75
2021/05/21 11:50:32;;;;;;;5.20;2.90;;;;;;;22.64;100.00;101145.88;4919861;29;20056;-75
2021/05/21 11:53:19;;;;;;;3.08;2.60;;;;;;;22.83;100.00;101138.47;4920063;29;20050;-76
2021/05/21 11:56:05;;;;;;;5.25;2.30;;;;;;;23.04;100.00;101145.16;4920016;29;20028;-76
2021/05/21 11:58:50;;;;;;;3.03;2.42;;;;;;;23.28;100.00;101146.34;4919590;29;20039;-76
2021/05/21 12:01:42;;;;;;;3.33;2.28;;;;;;;24.31;97.74;101143.13;4919883;29;20043;-76
2021/05/21 12:04:31;;;;;;;2.50;1.80;;;;;;;24.36;96.67;101141.00;4919882;29;20040;-76
2021/05/21 12:07:22;;;;;;;3.47;2.08;;;;;;;24.43;90.20;101142.31;4906721;29;20080;-75
2021/05/21 12:10:09;;;;;;;3.38;2.00;;;;;;;23.85;90.97;101149.75;4919115;29;20378;-75
2021/05/21 12:12:58;;;;;;;7.57;2.08;;;;;;;23.43;93.40;101153.41;4907233;29;20067;-75
2021/05/21 12:15:44;;;;;;;4.30;2.25;;;;;;;23.05;100.00;101154.91;4919384;29;20032;-74
2021/05/21 12:18:32;;;;;;;9.18;2.53;;;;;;;22.80;100.00;101160.03;4921095;29;20044;-74
2021/05/21 12:21:20;;;;;;;4.22;2.25;;;;;;;22.30;100.00;101144.31;4919426;29;20043;-73
2021/05/21 12:24:07;;;;;;;3.47;2.10;;;;;;;22.64;100.00;101151.22;4919192;29;20070;-73
2021/05/21 12:26:53;;;;;;;4.95;1.92;;;;;;;21.90;100.00;101158.25;4905247;29;20050;-73
2021/05/21 12:29:39;;;;;;;2.70;1.80;;;;;;;21.34;100.00;101151.69;4906987;29;20043;-73
2021/05/21 12:32:28;;;;;;;3.85;2.38;;;;;;;22.08;100.00;101145.66;4919174;29;20032;-73
2021/05/21 12:35:16;;;;;;;3.80;2.17;;;;;;;21.77;100.00;101157.22;4918884;29;20075;-73
2021/05/21 12:38:04;;;;;;;8.57;2.47;;;;;;;21.54;100.00;101157.63;4919702;29;20035;-72
2021/05/21 12:40:52;;;;;;;4.93;2.40;;;;;;;21.44;100.00;101159.09;4919226;29;20043;-73
2021/05/21 12:43:37;;;;;;;3.80;2.80;;;;;;;21.11;100.00;101163.59;4918812;29;20043;-73